Flight Track Log - Related Links

Times and Time Zones

All times are in EST time to prevent confusion due to time zone crossing. See the FIN666 flight status page for this flight to view local times or setup timezone preferences in your user account.

Time Position Orientation Groundspeed Altitude Reporting Facility
EST Latitude Longitude Course Direction KTS MPH feet Rate Location/Type
Mon 07:25:00 AM 55.9122 13.2660 49° Northeast  Level Estimated
Mon 07:26:00 AM 55.9853 13.4199 50° Northeast  Level Estimated
Mon 07:27:00 AM 56.0582 13.5744 50° Northeast  Level Estimated
Mon 07:28:00 AM 56.1352 13.7388 50° Northeast  Level Estimated
Mon 07:29:00 AM 56.2120 13.9039 50° Northeast  Level Estimated
Mon 07:30:00 AM 56.2886 14.0696 50° Northeast  Level Estimated
Mon 07:31:00 AM 56.3650 14.2359 50° Northeast  Level Estimated
Mon 07:32:00 AM 56.4412 14.4030 50° Northeast  Level Estimated
Mon 07:33:00 AM 56.5171 14.5707 51° Northeast  Level Estimated
Mon 07:34:00 AM 56.5928 14.7391 51° Northeast  Level Estimated
Mon 07:35:00 AM 56.6683 14.9081 51° Northeast  Level Estimated
Mon 07:36:00 AM 56.7435 15.0779 51° Northeast  Level Estimated
Mon 07:37:00 AM 56.8185 15.2483 51° Northeast  Level Estimated
Mon 07:38:00 AM 56.8933 15.4194 51° Northeast  Level Estimated
Mon 07:39:00 AM 56.9678 15.5912 51° Northeast  Level Estimated
Mon 07:40:00 AM 57.0421 15.7636 52° Northeast  Level Estimated
Mon 07:41:00 AM 57.1162 15.9368 52° Northeast  Level Estimated
Mon 07:42:00 AM 57.1900 16.1106 52° Northeast  Level Estimated
Mon 07:43:00 AM 57.2636 16.2852 52° Northeast  Level Estimated
Mon 07:44:00 AM 57.3370 16.4604 52° Northeast  Level Estimated
Mon 07:45:00 AM 57.4101 16.6364 52° Northeast  Level Estimated
Mon 07:46:00 AM 57.4829 16.8130 52° Northeast  Level Estimated
Mon 07:47:00 AM 57.5555 16.9904 53° Northeast  Level Estimated
Mon 07:48:00 AM 57.6279 17.1684 53° Northeast  Level Estimated
Mon 07:49:00 AM 57.7000 17.3472 53° Northeast  Level Estimated
Mon 07:50:00 AM 57.7719 17.5267 53° Northeast  Level Estimated
Mon 07:51:00 AM 57.8435 17.7069 53° Northeast  Level Estimated
Mon 07:52:00 AM 57.9148 17.8878 53° Northeast  Level Estimated
Mon 07:53:00 AM 57.9859 18.0694 54° Northeast  Level Estimated
Mon 07:54:00 AM 58.0567 18.2518 54° Northeast  Level Estimated
Mon 07:55:00 AM 58.1273 18.4349 54° Northeast  Level Estimated
Mon 07:56:00 AM 58.1976 18.6187 54° Northeast  Level Estimated
Mon 07:57:00 AM 58.2676 18.8032 54° Northeast  Level Estimated
Mon 07:58:00 AM 58.3374 18.9884 54° Northeast  Level Estimated
Mon 07:59:00 AM 58.4069 19.1744 54° Northeast  Level Estimated
Mon 08:00:00 AM 58.4761 19.3612 55° Northeast  Level Estimated
Mon 08:01:00 AM 58.5451 19.5486 55° Northeast  Level Estimated
Mon 08:02:00 AM 58.6137 19.7368 55° Northeast  Level Estimated
Mon 08:03:00 AM 58.6822 19.9258 55° Northeast  Level Estimated
Mon 08:04:00 AM 58.7503 20.1154 55° Northeast  Level Estimated
Mon 08:05:00 AM 58.8181 20.3059 55° Northeast  Level Estimated
Mon 08:06:00 AM 58.8857 20.4970 56° Northeast  Level Estimated
Mon 08:07:00 AM 58.9530 20.6889 56° Northeast  Level Estimated
Mon 08:08:00 AM 59.0200 20.8816 56° Northeast  Level Estimated
Mon 08:09:00 AM 59.0867 21.0750 56° Northeast  Level Estimated
Mon 08:10:00 AM 59.1531 21.2692 56° Northeast  Level Estimated
Mon 08:11:00 AM 59.2192 21.4641 56° Northeast  Level Estimated
Mon 08:12:00 AM 59.2851 21.6598 57° Northeast  Level Estimated
Mon 08:13:00 AM 59.3506 21.8562 57° Northeast  Level Estimated
Mon 08:14:00 AM 59.4140 22.0476 57° Northeast  Level Estimated
Mon 08:15:00 AM 59.4771 22.2398 57° Northeast  Level Estimated
Mon 08:16:00 AM 59.5399 22.4327 57° Northeast  Level Estimated
Mon 08:17:00 AM 59.6024 22.6263 57° Northeast  Level Estimated
Mon 08:18:00 AM 59.6646 22.8207 58° Northeast  Level Estimated
Mon 08:19:00 AM 59.7265 23.0157 58° Northeast  Level Estimated
Mon 08:20:00 AM 59.7882 23.2115 58° Northeast  Level Estimated
Mon 08:21:00 AM 59.8495 23.4080 58° Northeast  Level Estimated
Mon 08:22:00 AM 59.9106 23.6052 58° Northeast  Level Estimated
Mon 08:23:00 AM 59.9714 23.8032 58° Northeast  Level Estimated
Mon 08:24:00 AM 60.0318 24.0018 59° Northeast  Level Estimated
Mon 08:25:00 AM 60.0920 24.2012 59° Northeast  Level Estimated
Mon 08:26:00 AM 60.1519 24.4014 59° Northeast  Level Estimated
Mon 08:27:00 AM 60.2114 24.6022 59° Northeast  Level Estimated
Mon 08:28:00 AM 60.2707 24.8038 59° Northeast  Level Estimated
Mon 08:29:00 AM 60.3172 24.9633 59° Northeast  Level Estimated
Mon 08:30:00 AM 60.3172 24.9633 37° Northeast  Level Estimated
Mon 08:31:00 AM 60.3172 24.9633 37° Northeast  Level Estimated
Mon 08:32:00 AM 60.3172 24.9633 37° Northeast  Level Estimated
Mon 08:33:00 AM 60.3172 24.9633 37° Northeast  Level Estimated
Mon 08:34:00 AM 60.3172 24.9633 37° Northeast  Level Estimated
Mon 08:35:00 AM 60.3172 24.9633 37° Northeast  Level Estimated
Mon 08:36:00 AM 60.3172 24.9633 37° Northeast  Level Estimated
Mon 08:37:00 AM 60.3172 24.9633 37° Northeast  Level Estimated
Mon 08:38:00 AM 60.3172 24.9633 37° Northeast  Level Estimated
Mon 08:39:00 AM 60.3172 24.9633 37° Northeast  Level Estimated
Mon 08:40:00 AM 60.3172 24.9633 37° Northeast  Level Estimated

Login

Don't have an account? Register now (free) for customized features, flight alerts, and more!